Auance, South Dakota
Current Conditions -  °F | °C
As of 6:55 PM on Saturday 20 Dec 2014 (Local Time) from KPHP Reporting Station
Few Clouds Few Clouds  
Wind Chill: -5°   Ceiling: Unl
Heat Index: -1°   Visibility: 10mi
Dew Point: -5°   Wind: 8mph
Humidity: 75%   Direction: 280°W
Pressure: 29.88"   Gusts: NA
Location:  44.8511°N, 102.128°W
Report Text: KPHP 210155Z AUTO 28007KT 10SM FEW095 M01/M05 A2988 RMK AO2 SLP144 T10111050
Loading
Personal Weather Stations






























Interactive Weather Map New forecast layout! Learn more

10-Day Weather Forecast

Advertisements
Track Severe Weather on mobile